sensor_id;sensor_type;location;lat;lon;timestamp;P1;durP1;ratioP1;P2;durP2;ratioP2
4583;SDS011;2304;47.606;12.186;2023-05-29T00:02:36;10.10;;;4.60;;
4583;SDS011;2304;47.606;12.186;2023-05-29T00:07:39;6.37;;;3.87;;
4583;SDS011;2304;47.606;12.186;2023-05-29T00:12:42;14.03;;;5.20;;
4583;SDS011;2304;47.606;12.186;2023-05-29T00:17:44;8.60;;;4.60;;
4583;SDS011;2304;47.606;12.186;2023-05-29T00:22:47;7.77;;;4.50;;
4583;SDS011;2304;47.606;12.186;2023-05-29T00:27:49;10.43;;;5.20;;
4583;SDS011;2304;47.606;12.186;2023-05-29T00:32:51;9.20;;;4.30;;
4583;SDS011;2304;47.606;12.186;2023-05-29T00:37:55;7.80;;;4.63;;
4583;SDS011;2304;47.606;12.186;2023-05-29T00:42:57;8.47;;;4.87;;
4583;SDS011;2304;47.606;12.186;2023-05-29T00:47:59;8.30;;;4.43;;
4583;SDS011;2304;47.606;12.186;2023-05-29T00:53:02;7.47;;;4.80;;
4583;SDS011;2304;47.606;12.186;2023-05-29T00:58:04;7.70;;;5.03;;
4583;SDS011;2304;47.606;12.186;2023-05-29T01:03:07;6.97;;;4.70;;
4583;SDS011;2304;47.606;12.186;2023-05-29T01:08:10;10.23;;;5.60;;
4583;SDS011;2304;47.606;12.186;2023-05-29T01:13:14;9.77;;;5.37;;
4583;SDS011;2304;47.606;12.186;2023-05-29T01:18:23;9.57;;;5.23;;
4583;SDS011;2304;47.606;12.186;2023-05-29T01:23:40;9.73;;;5.17;;
4583;SDS011;2304;47.606;12.186;2023-05-29T01:28:55;10.27;;;5.07;;
4583;SDS011;2304;47.606;12.186;2023-05-29T01:34:01;11.00;;;5.30;;
4583;SDS011;2304;47.606;12.186;2023-05-29T01:39:03;9.33;;;4.40;;
4583;SDS011;2304;47.606;12.186;2023-05-29T01:44:07;6.97;;;5.00;;
4583;SDS011;2304;47.606;12.186;2023-05-29T01:49:10;8.60;;;5.03;;
4583;SDS011;2304;47.606;12.186;2023-05-29T01:54:12;11.17;;;5.07;;
4583;SDS011;2304;47.606;12.186;2023-05-29T01:59:16;8.17;;;5.17;;
4583;SDS011;2304;47.606;12.186;2023-05-29T02:04:18;7.40;;;5.40;;
4583;SDS011;2304;47.606;12.186;2023-05-29T02:09:20;7.00;;;4.77;;
4583;SDS011;2304;47.606;12.186;2023-05-29T02:14:24;7.57;;;5.27;;
4583;SDS011;2304;47.606;12.186;2023-05-29T02:19:26;8.10;;;4.80;;
4583;SDS011;2304;47.606;12.186;2023-05-29T02:24:27;10.40;;;5.30;;
4583;SDS011;2304;47.606;12.186;2023-05-29T02:29:31;7.33;;;5.80;;
4583;SDS011;2304;47.606;12.186;2023-05-29T02:34:33;10.70;;;5.00;;
4583;SDS011;2304;47.606;12.186;2023-05-29T02:39:34;10.07;;;5.23;;
4583;SDS011;2304;47.606;12.186;2023-05-29T02:44:37;14.70;;;5.37;;
4583;SDS011;2304;47.606;12.186;2023-05-29T02:49:39;11.23;;;5.30;;
4583;SDS011;2304;47.606;12.186;2023-05-29T02:54:41;10.30;;;5.30;;
4583;SDS011;2304;47.606;12.186;2023-05-29T02:59:44;7.33;;;5.00;;
4583;SDS011;2304;47.606;12.186;2023-05-29T03:04:46;9.70;;;5.43;;
4583;SDS011;2304;47.606;12.186;2023-05-29T03:09:50;6.83;;;4.73;;
4583;SDS011;2304;47.606;12.186;2023-05-29T03:14:53;10.27;;;6.20;;
4583;SDS011;2304;47.606;12.186;2023-05-29T03:19:56;14.50;;;6.07;;
4583;SDS011;2304;47.606;12.186;2023-05-29T03:24:58;13.07;;;6.67;;
4583;SDS011;2304;47.606;12.186;2023-05-29T03:30:01;11.20;;;7.10;;
4583;SDS011;2304;47.606;12.186;2023-05-29T03:35:04;12.83;;;5.97;;
4583;SDS011;2304;47.606;12.186;2023-05-29T03:40:06;7.73;;;5.70;;
4583;SDS011;2304;47.606;12.186;2023-05-29T03:45:10;11.73;;;7.00;;
4583;SDS011;2304;47.606;12.186;2023-05-29T03:50:12;9.43;;;6.43;;
4583;SDS011;2304;47.606;12.186;2023-05-29T03:55:15;9.43;;;6.00;;
4583;SDS011;2304;47.606;12.186;2023-05-29T04:00:19;8.73;;;4.87;;
4583;SDS011;2304;47.606;12.186;2023-05-29T04:05:20;10.13;;;6.23;;
4583;SDS011;2304;47.606;12.186;2023-05-29T04:10:22;8.30;;;5.20;;
4583;SDS011;2304;47.606;12.186;2023-05-29T04:15:26;9.43;;;5.90;;
4583;SDS011;2304;47.606;12.186;2023-05-29T04:20:28;6.70;;;5.00;;
4583;SDS011;2304;47.606;12.186;2023-05-29T04:25:30;9.63;;;5.70;;
4583;SDS011;2304;47.606;12.186;2023-05-29T04:30:33;9.67;;;6.10;;
4583;SDS011;2304;47.606;12.186;2023-05-29T04:35:35;11.60;;;6.20;;
4583;SDS011;2304;47.606;12.186;2023-05-29T04:40:37;9.57;;;5.70;;
4583;SDS011;2304;47.606;12.186;2023-05-29T04:45:41;12.40;;;7.90;;
4583;SDS011;2304;47.606;12.186;2023-05-29T04:50:43;13.30;;;8.00;;
4583;SDS011;2304;47.606;12.186;2023-05-29T04:55:45;11.10;;;6.97;;
4583;SDS011;2304;47.606;12.186;2023-05-29T05:00:48;11.33;;;7.10;;
4583;SDS011;2304;47.606;12.186;2023-05-29T05:05:50;10.10;;;7.00;;
4583;SDS011;2304;47.606;12.186;2023-05-29T05:10:52;11.30;;;7.27;;
4583;SDS011;2304;47.606;12.186;2023-05-29T05:15:56;11.20;;;7.30;;
4583;SDS011;2304;47.606;12.186;2023-05-29T05:20:57;10.90;;;6.87;;
4583;SDS011;2304;47.606;12.186;2023-05-29T05:25:59;13.87;;;7.50;;
4583;SDS011;2304;47.606;12.186;2023-05-29T05:31:02;8.30;;;7.13;;
4583;SDS011;2304;47.606;12.186;2023-05-29T05:36:04;11.83;;;7.70;;
4583;SDS011;2304;47.606;12.186;2023-05-29T05:41:06;16.77;;;7.40;;
4583;SDS011;2304;47.606;12.186;2023-05-29T05:46:10;9.43;;;6.87;;
4583;SDS011;2304;47.606;12.186;2023-05-29T05:51:12;12.87;;;7.00;;
4583;SDS011;2304;47.606;12.186;2023-05-29T05:56:14;11.37;;;7.40;;
4583;SDS011;2304;47.606;12.186;2023-05-29T06:01:17;11.60;;;7.70;;
4583;SDS011;2304;47.606;12.186;2023-05-29T06:06:20;9.73;;;6.40;;
4583;SDS011;2304;47.606;12.186;2023-05-29T06:11:21;13.13;;;6.77;;
4583;SDS011;2304;47.606;12.186;2023-05-29T06:16:25;12.60;;;6.67;;
4583;SDS011;2304;47.606;12.186;2023-05-29T06:21:26;9.57;;;6.60;;
4583;SDS011;2304;47.606;12.186;2023-05-29T06:26:28;10.80;;;6.00;;
4583;SDS011;2304;47.606;12.186;2023-05-29T06:31:31;9.80;;;6.60;;
4583;SDS011;2304;47.606;12.186;2023-05-29T06:36:34;13.17;;;7.00;;
4583;SDS011;2304;47.606;12.186;2023-05-29T06:41:35;11.70;;;7.67;;
4583;SDS011;2304;47.606;12.186;2023-05-29T06:46:39;18.60;;;6.50;;
4583;SDS011;2304;47.606;12.186;2023-05-29T06:51:40;12.90;;;6.33;;
4583;SDS011;2304;47.606;12.186;2023-05-29T06:56:43;12.57;;;6.53;;
4583;SDS011;2304;47.606;12.186;2023-05-29T07:01:46;9.77;;;5.47;;
4583;SDS011;2304;47.606;12.186;2023-05-29T07:06:48;11.23;;;5.73;;
4583;SDS011;2304;47.606;12.186;2023-05-29T07:11:49;9.53;;;6.20;;
4583;SDS011;2304;47.606;12.186;2023-05-29T07:16:53;12.43;;;6.50;;
4583;SDS011;2304;47.606;12.186;2023-05-29T07:21:55;11.13;;;6.67;;
4583;SDS011;2304;47.606;12.186;2023-05-29T07:26:56;13.90;;;6.40;;
4583;SDS011;2304;47.606;12.186;2023-05-29T07:31:59;10.73;;;6.70;;
4583;SDS011;2304;47.606;12.186;2023-05-29T07:37:02;11.77;;;6.97;;
4583;SDS011;2304;47.606;12.186;2023-05-29T07:42:05;9.07;;;6.33;;
4583;SDS011;2304;47.606;12.186;2023-05-29T07:47:09;7.83;;;5.10;;
4583;SDS011;2304;47.606;12.186;2023-05-29T07:52:10;22.57;;;6.03;;
4583;SDS011;2304;47.606;12.186;2023-05-29T07:57:12;10.90;;;6.00;;
4583;SDS011;2304;47.606;12.186;2023-05-29T08:02:16;8.40;;;5.43;;
4583;SDS011;2304;47.606;12.186;2023-05-29T08:07:18;8.90;;;6.93;;
4583;SDS011;2304;47.606;12.186;2023-05-29T08:12:20;10.57;;;6.93;;
4583;SDS011;2304;47.606;12.186;2023-05-29T08:17:23;12.07;;;6.30;;
4583;SDS011;2304;47.606;12.186;2023-05-29T08:22:27;10.50;;;6.13;;
4583;SDS011;2304;47.606;12.186;2023-05-29T08:27:30;11.30;;;6.40;;
4583;SDS011;2304;47.606;12.186;2023-05-29T08:32:33;9.00;;;5.50;;
4583;SDS011;2304;47.606;12.186;2023-05-29T08:37:35;10.13;;;6.10;;
4583;SDS011;2304;47.606;12.186;2023-05-29T08:42:40;7.47;;;5.00;;
4583;SDS011;2304;47.606;12.186;2023-05-29T08:47:47;18.00;;;6.10;;
4583;SDS011;2304;47.606;12.186;2023-05-29T08:52:52;9.50;;;5.57;;
4583;SDS011;2304;47.606;12.186;2023-05-29T08:57:55;13.67;;;5.77;;
4583;SDS011;2304;47.606;12.186;2023-05-29T09:02:58;9.97;;;6.30;;
4583;SDS011;2304;47.606;12.186;2023-05-29T09:08:01;9.97;;;6.37;;
4583;SDS011;2304;47.606;12.186;2023-05-29T09:13:04;9.03;;;6.43;;
4583;SDS011;2304;47.606;12.186;2023-05-29T09:18:08;9.53;;;6.70;;
4583;SDS011;2304;47.606;12.186;2023-05-29T09:23:10;12.70;;;6.33;;
4583;SDS011;2304;47.606;12.186;2023-05-29T09:28:12;10.27;;;5.90;;
4583;SDS011;2304;47.606;12.186;2023-05-29T09:33:16;10.33;;;5.70;;
4583;SDS011;2304;47.606;12.186;2023-05-29T09:38:19;10.30;;;5.60;;
4583;SDS011;2304;47.606;12.186;2023-05-29T09:43:21;10.37;;;5.87;;
4583;SDS011;2304;47.606;12.186;2023-05-29T09:48:25;7.27;;;5.23;;
4583;SDS011;2304;47.606;12.186;2023-05-29T09:53:27;9.43;;;5.30;;
4583;SDS011;2304;47.606;12.186;2023-05-29T09:58:29;9.10;;;5.00;;
4583;SDS011;2304;47.606;12.186;2023-05-29T10:03:35;7.77;;;5.40;;
4583;SDS011;2304;47.606;12.186;2023-05-29T10:08:37;9.63;;;5.33;;
4583;SDS011;2304;47.606;12.186;2023-05-29T10:13:41;8.20;;;5.30;;
4583;SDS011;2304;47.606;12.186;2023-05-29T10:18:53;8.23;;;5.40;;
4583;SDS011;2304;47.606;12.186;2023-05-29T10:23:56;8.07;;;5.30;;
4583;SDS011;2304;47.606;12.186;2023-05-29T10:29:01;10.93;;;5.17;;
4583;SDS011;2304;47.606;12.186;2023-05-29T10:34:14;10.37;;;6.20;;
4583;SDS011;2304;47.606;12.186;2023-05-29T10:39:24;7.70;;;5.03;;
4583;SDS011;2304;47.606;12.186;2023-05-29T10:44:38;11.90;;;6.00;;
4583;SDS011;2304;47.606;12.186;2023-05-29T10:49:50;10.73;;;5.40;;
4583;SDS011;2304;47.606;12.186;2023-05-29T10:54:53;9.00;;;6.20;;
4583;SDS011;2304;47.606;12.186;2023-05-29T10:59:57;7.20;;;5.80;;
4583;SDS011;2304;47.606;12.186;2023-05-29T11:15:43;8.50;;;5.50;;
4583;SDS011;2304;47.606;12.186;2023-05-29T11:20:49;7.70;;;5.20;;
4583;SDS011;2304;47.606;12.186;2023-05-29T11:25:54;7.13;;;5.30;;
4583;SDS011;2304;47.606;12.186;2023-05-29T11:30:56;11.73;;;5.40;;
4583;SDS011;2304;47.606;12.186;2023-05-29T11:36:02;9.57;;;5.20;;
4583;SDS011;2304;47.606;12.186;2023-05-29T11:41:04;9.77;;;5.70;;
4583;SDS011;2304;47.606;12.186;2023-05-29T11:46:16;10.17;;;5.77;;
4583;SDS011;2304;47.606;12.186;2023-05-29T11:51:20;8.57;;;5.43;;
4583;SDS011;2304;47.606;12.186;2023-05-29T11:56:22;9.40;;;5.50;;
4583;SDS011;2304;47.606;12.186;2023-05-29T12:01:25;8.83;;;5.90;;
4583;SDS011;2304;47.606;12.186;2023-05-29T12:06:33;10.40;;;6.13;;
4583;SDS011;2304;47.606;12.186;2023-05-29T12:11:37;7.27;;;5.00;;
4583;SDS011;2304;47.606;12.186;2023-05-29T12:16:38;8.33;;;5.50;;
4583;SDS011;2304;47.606;12.186;2023-05-29T12:21:42;9.70;;;5.30;;
4583;SDS011;2304;47.606;12.186;2023-05-29T12:26:44;8.73;;;5.33;;
4583;SDS011;2304;47.606;12.186;2023-05-29T12:31:47;7.43;;;5.27;;
4583;SDS011;2304;47.606;12.186;2023-05-29T12:37:05;8.20;;;5.57;;
4583;SDS011;2304;47.606;12.186;2023-05-29T12:42:09;7.47;;;5.07;;
4583;SDS011;2304;47.606;12.186;2023-05-29T12:47:13;7.70;;;5.17;;
4583;SDS011;2304;47.606;12.186;2023-05-29T12:52:19;8.10;;;5.10;;
4583;SDS011;2304;47.606;12.186;2023-05-29T12:57:21;8.60;;;5.33;;
4583;SDS011;2304;47.606;12.186;2023-05-29T13:02:23;8.70;;;5.00;;
4583;SDS011;2304;47.606;12.186;2023-05-29T13:07:27;9.83;;;5.40;;
4583;SDS011;2304;47.606;12.186;2023-05-29T13:12:29;11.60;;;5.70;;
4583;SDS011;2304;47.606;12.186;2023-05-29T13:17:30;8.87;;;5.23;;
4583;SDS011;2304;47.606;12.186;2023-05-29T13:22:34;9.10;;;5.00;;
4583;SDS011;2304;47.606;12.186;2023-05-29T13:27:36;8.90;;;5.30;;
4583;SDS011;2304;47.606;12.186;2023-05-29T13:32:38;8.37;;;5.63;;
4583;SDS011;2304;47.606;12.186;2023-05-29T13:37:42;7.77;;;5.37;;
4583;SDS011;2304;47.606;12.186;2023-05-29T13:42:45;7.20;;;5.00;;
4583;SDS011;2304;47.606;12.186;2023-05-29T13:47:47;9.50;;;5.17;;
4583;SDS011;2304;47.606;12.186;2023-05-29T13:52:50;8.90;;;5.90;;
4583;SDS011;2304;47.606;12.186;2023-05-29T13:57:52;10.77;;;5.77;;
4583;SDS011;2304;47.606;12.186;2023-05-29T14:02:54;9.93;;;5.57;;
4583;SDS011;2304;47.606;12.186;2023-05-29T14:07:57;7.73;;;5.20;;
4583;SDS011;2304;47.606;12.186;2023-05-29T14:12:59;9.67;;;5.50;;
4583;SDS011;2304;47.606;12.186;2023-05-29T14:18:01;9.23;;;5.63;;
4583;SDS011;2304;47.606;12.186;2023-05-29T14:23:04;10.13;;;5.47;;
4583;SDS011;2304;47.606;12.186;2023-05-29T14:28:09;10.10;;;5.60;;
4583;SDS011;2304;47.606;12.186;2023-05-29T14:33:11;10.03;;;5.27;;
4583;SDS011;2304;47.606;12.186;2023-05-29T14:38:14;9.73;;;5.53;;
4583;SDS011;2304;47.606;12.186;2023-05-29T14:43:16;7.10;;;5.10;;
4583;SDS011;2304;47.606;12.186;2023-05-29T14:48:18;8.00;;;5.20;;
4583;SDS011;2304;47.606;12.186;2023-05-29T14:53:21;7.67;;;5.37;;
4583;SDS011;2304;47.606;12.186;2023-05-29T14:58:23;8.90;;;5.00;;
4583;SDS011;2304;47.606;12.186;2023-05-29T15:03:25;7.87;;;5.80;;
4583;SDS011;2304;47.606;12.186;2023-05-29T15:08:29;7.20;;;4.90;;
4583;SDS011;2304;47.606;12.186;2023-05-29T15:13:34;6.40;;;4.80;;
4583;SDS011;2304;47.606;12.186;2023-05-29T15:18:36;8.50;;;5.40;;
4583;SDS011;2304;47.606;12.186;2023-05-29T15:23:39;9.53;;;4.73;;
4583;SDS011;2304;47.606;12.186;2023-05-29T15:28:43;7.80;;;4.83;;
4583;SDS011;2304;47.606;12.186;2023-05-29T15:33:45;7.73;;;5.13;;
4583;SDS011;2304;47.606;12.186;2023-05-29T15:38:48;11.97;;;4.73;;
4583;SDS011;2304;47.606;12.186;2023-05-29T15:43:50;7.40;;;5.10;;
4583;SDS011;2304;47.606;12.186;2023-05-29T15:48:52;7.30;;;4.80;;
4583;SDS011;2304;47.606;12.186;2023-05-29T15:53:55;11.50;;;5.00;;
4583;SDS011;2304;47.606;12.186;2023-05-29T15:58:57;6.43;;;4.30;;
4583;SDS011;2304;47.606;12.186;2023-05-29T16:03:59;9.10;;;5.30;;
4583;SDS011;2304;47.606;12.186;2023-05-29T16:09:04;7.97;;;5.00;;
4583;SDS011;2304;47.606;12.186;2023-05-29T16:14:07;7.27;;;5.00;;
4583;SDS011;2304;47.606;12.186;2023-05-29T16:19:08;8.10;;;4.80;;
4583;SDS011;2304;47.606;12.186;2023-05-29T16:24:12;5.83;;;4.33;;
4583;SDS011;2304;47.606;12.186;2023-05-29T16:29:14;8.23;;;5.43;;
4583;SDS011;2304;47.606;12.186;2023-05-29T16:34:15;8.40;;;5.00;;
4583;SDS011;2304;47.606;12.186;2023-05-29T16:39:19;8.30;;;4.60;;
4583;SDS011;2304;47.606;12.186;2023-05-29T16:44:22;8.30;;;5.17;;
4583;SDS011;2304;47.606;12.186;2023-05-29T16:49:24;7.23;;;4.47;;
4583;SDS011;2304;47.606;12.186;2023-05-29T16:54:27;7.57;;;4.50;;
4583;SDS011;2304;47.606;12.186;2023-05-29T16:59:30;9.90;;;5.27;;
4583;SDS011;2304;47.606;12.186;2023-05-29T17:04:32;8.10;;;5.53;;
4583;SDS011;2304;47.606;12.186;2023-05-29T17:09:37;5.87;;;3.93;;
4583;SDS011;2304;47.606;12.186;2023-05-29T17:14:38;6.07;;;4.30;;
4583;SDS011;2304;47.606;12.186;2023-05-29T17:19:40;8.10;;;4.57;;
4583;SDS011;2304;47.606;12.186;2023-05-29T17:24:44;7.40;;;4.67;;
4583;SDS011;2304;47.606;12.186;2023-05-29T17:29:45;8.97;;;5.40;;
4583;SDS011;2304;47.606;12.186;2023-05-29T17:34:47;11.53;;;4.60;;
4583;SDS011;2304;47.606;12.186;2023-05-29T17:39:53;10.43;;;4.40;;
4583;SDS011;2304;47.606;12.186;2023-05-29T17:44:54;8.00;;;4.27;;
4583;SDS011;2304;47.606;12.186;2023-05-29T17:49:56;9.53;;;4.60;;
4583;SDS011;2304;47.606;12.186;2023-05-29T17:55:00;12.90;;;4.43;;
4583;SDS011;2304;47.606;12.186;2023-05-29T18:00:02;6.60;;;4.10;;
4583;SDS011;2304;47.606;12.186;2023-05-29T18:05:05;5.80;;;4.00;;
4583;SDS011;2304;47.606;12.186;2023-05-29T18:10:08;7.00;;;4.73;;
4583;SDS011;2304;47.606;12.186;2023-05-29T18:15:10;7.93;;;4.20;;
4583;SDS011;2304;47.606;12.186;2023-05-29T18:20:13;6.70;;;4.43;;
4583;SDS011;2304;47.606;12.186;2023-05-29T18:25:19;7.20;;;4.83;;
4583;SDS011;2304;47.606;12.186;2023-05-29T18:30:21;7.60;;;4.20;;
4583;SDS011;2304;47.606;12.186;2023-05-29T18:35:23;6.30;;;4.07;;
4583;SDS011;2304;47.606;12.186;2023-05-29T18:40:26;7.17;;;4.07;;
4583;SDS011;2304;47.606;12.186;2023-05-29T18:45:28;6.90;;;4.20;;
4583;SDS011;2304;47.606;12.186;2023-05-29T18:50:30;10.73;;;5.30;;
4583;SDS011;2304;47.606;12.186;2023-05-29T18:55:33;8.37;;;4.70;;
4583;SDS011;2304;47.606;12.186;2023-05-29T19:00:35;9.57;;;4.63;;
4583;SDS011;2304;47.606;12.186;2023-05-29T19:05:37;7.70;;;4.30;;
4583;SDS011;2304;47.606;12.186;2023-05-29T19:10:40;6.67;;;3.93;;
4583;SDS011;2304;47.606;12.186;2023-05-29T19:15:42;7.97;;;4.30;;
4583;SDS011;2304;47.606;12.186;2023-05-29T19:20:44;7.67;;;3.90;;
4583;SDS011;2304;47.606;12.186;2023-05-29T19:25:47;6.23;;;3.80;;
4583;SDS011;2304;47.606;12.186;2023-05-29T19:30:50;9.23;;;4.20;;
4583;SDS011;2304;47.606;12.186;2023-05-29T19:35:52;7.07;;;4.70;;
4583;SDS011;2304;47.606;12.186;2023-05-29T19:40:55;6.63;;;4.00;;
4583;SDS011;2304;47.606;12.186;2023-05-29T19:45:57;9.00;;;4.23;;
4583;SDS011;2304;47.606;12.186;2023-05-29T19:50:59;6.47;;;4.50;;
4583;SDS011;2304;47.606;12.186;2023-05-29T19:56:02;8.23;;;4.13;;
4583;SDS011;2304;47.606;12.186;2023-05-29T20:01:07;10.57;;;4.60;;
4583;SDS011;2304;47.606;12.186;2023-05-29T20:06:09;7.40;;;4.43;;
4583;SDS011;2304;47.606;12.186;2023-05-29T20:11:12;6.93;;;4.37;;
4583;SDS011;2304;47.606;12.186;2023-05-29T20:16:14;11.87;;;4.90;;
4583;SDS011;2304;47.606;12.186;2023-05-29T20:21:15;9.37;;;5.00;;
4583;SDS011;2304;47.606;12.186;2023-05-29T20:26:19;9.70;;;4.13;;
4583;SDS011;2304;47.606;12.186;2023-05-29T20:31:22;9.90;;;4.80;;
4583;SDS011;2304;47.606;12.186;2023-05-29T20:36:25;7.97;;;4.50;;
4583;SDS011;2304;47.606;12.186;2023-05-29T20:41:31;8.27;;;4.10;;
4583;SDS011;2304;47.606;12.186;2023-05-29T20:46:33;10.50;;;4.70;;
4583;SDS011;2304;47.606;12.186;2023-05-29T20:51:35;8.57;;;4.87;;
4583;SDS011;2304;47.606;12.186;2023-05-29T20:56:38;6.43;;;4.00;;
4583;SDS011;2304;47.606;12.186;2023-05-29T21:01:42;6.77;;;4.30;;
4583;SDS011;2304;47.606;12.186;2023-05-29T21:06:44;7.27;;;4.63;;
4583;SDS011;2304;47.606;12.186;2023-05-29T21:11:47;12.53;;;5.93;;
4583;SDS011;2304;47.606;12.186;2023-05-29T21:16:49;9.43;;;5.03;;
4583;SDS011;2304;47.606;12.186;2023-05-29T21:21:51;8.00;;;4.30;;
4583;SDS011;2304;47.606;12.186;2023-05-29T21:26:54;7.70;;;4.70;;
4583;SDS011;2304;47.606;12.186;2023-05-29T21:31:56;6.10;;;4.40;;
4583;SDS011;2304;47.606;12.186;2023-05-29T21:36:59;7.30;;;4.30;;
4583;SDS011;2304;47.606;12.186;2023-05-29T21:42:02;6.30;;;4.60;;
4583;SDS011;2304;47.606;12.186;2023-05-29T21:47:05;14.13;;;4.73;;
4583;SDS011;2304;47.606;12.186;2023-05-29T21:52:07;10.87;;;4.57;;
4583;SDS011;2304;47.606;12.186;2023-05-29T21:57:12;7.60;;;4.77;;
4583;SDS011;2304;47.606;12.186;2023-05-29T22:02:15;8.37;;;5.00;;
4583;SDS011;2304;47.606;12.186;2023-05-29T22:07:17;8.20;;;5.27;;
4583;SDS011;2304;47.606;12.186;2023-05-29T22:12:20;8.13;;;5.00;;
4583;SDS011;2304;47.606;12.186;2023-05-29T22:17:24;9.83;;;5.27;;
4583;SDS011;2304;47.606;12.186;2023-05-29T22:22:28;9.03;;;4.90;;
4583;SDS011;2304;47.606;12.186;2023-05-29T22:27:34;7.23;;;4.93;;
4583;SDS011;2304;47.606;12.186;2023-05-29T22:32:36;8.40;;;5.23;;
4583;SDS011;2304;47.606;12.186;2023-05-29T22:37:41;7.10;;;4.40;;
4583;SDS011;2304;47.606;12.186;2023-05-29T22:42:44;7.87;;;4.67;;
4583;SDS011;2304;47.606;12.186;2023-05-29T22:47:46;10.73;;;5.10;;
4583;SDS011;2304;47.606;12.186;2023-05-29T22:52:48;9.70;;;4.77;;
4583;SDS011;2304;47.606;12.186;2023-05-29T22:57:52;8.53;;;4.50;;
4583;SDS011;2304;47.606;12.186;2023-05-29T23:02:55;10.63;;;4.70;;
4583;SDS011;2304;47.606;12.186;2023-05-29T23:07:57;11.10;;;5.10;;
4583;SDS011;2304;47.606;12.186;2023-05-29T23:13:02;9.40;;;4.93;;
4583;SDS011;2304;47.606;12.186;2023-05-29T23:18:04;10.20;;;4.90;;
4583;SDS011;2304;47.606;12.186;2023-05-29T23:23:07;11.53;;;4.80;;
4583;SDS011;2304;47.606;12.186;2023-05-29T23:28:12;8.17;;;5.00;;
4583;SDS011;2304;47.606;12.186;2023-05-29T23:33:13;11.40;;;5.10;;
4583;SDS011;2304;47.606;12.186;2023-05-29T23:38:15;7.43;;;4.90;;
4583;SDS011;2304;47.606;12.186;2023-05-29T23:43:18;8.47;;;4.90;;
4583;SDS011;2304;47.606;12.186;2023-05-29T23:48:20;7.63;;;4.40;;
4583;SDS011;2304;47.606;12.186;2023-05-29T23:53:22;9.40;;;5.00;;
4583;SDS011;2304;47.606;12.186;2023-05-29T23:58:25;6.13;;;4.50;;
